Time;durP1;ratioP1;P1;durP2;ratioP2;P2;SDS_P1;SDS_P2;PMS_P1;PMS_P2;Temp;Humidity;BMP_temperature;BMP_pressure;BME280_temperature;BME280_humidity;BME280_pressure;Samples;Min_cycle;Max_cycle;Signal;HPM_P1;HPM_P2
2023/03/24 00:02:05;;;;;;;2.20;1.40;;;13.00;90.90;;;;;;5093201;28;20025;-66
2023/03/24 00:04:32;;;;;;;2.88;1.40;;;13.00;90.80;;;;;;5090146;28;20149;-68
2023/03/24 00:07:00;;;;;;;2.45;1.58;;;13.10;90.90;;;;;;5085878;28;20016;-67
2023/03/24 00:09:28;;;;;;;3.83;1.70;;;13.00;90.80;;;;;;5099053;28;20032;-67
2023/03/24 00:11:54;;;;;;;1.80;1.27;;;13.00;90.90;;;;;;5087851;28;20066;-66
2023/03/24 00:14:20;;;;;;;4.38;1.70;;;13.00;90.90;;;;;;5088587;28;20028;-66
2023/03/24 00:16:46;;;;;;;2.47;1.50;;;13.00;91.10;;;;;;5092711;28;20039;-68
2023/03/24 00:19:13;;;;;;;3.08;1.70;;;13.00;91.00;;;;;;5091955;28;20111;-68
2023/03/24 00:21:40;;;;;;;6.80;1.65;;;13.00;91.00;;;;;;5093388;28;20473;-67
2023/03/24 00:24:06;;;;;;;3.15;1.30;;;13.00;91.20;;;;;;5092885;28;20107;-68
2023/03/24 00:26:33;;;;;;;3.55;1.40;;;13.00;91.10;;;;;;5096343;28;20118;-68
2023/03/24 00:29:00;;;;;;;3.88;1.60;;;13.00;91.10;;;;;;5092034;28;20024;-67
2023/03/24 00:31:26;;;;;;;2.35;1.55;;;13.00;91.10;;;;;;5095623;28;20520;-68
2023/03/24 00:33:52;;;;;;;4.68;1.80;;;13.00;91.20;;;;;;5092979;28;20054;-68
2023/03/24 00:36:19;;;;;;;3.45;1.63;;;13.00;91.40;;;;;;5087370;28;20040;-67
2023/03/24 00:38:48;;;;;;;3.03;1.90;;;13.00;91.40;;;;;;5088063;28;20030;-67
2023/03/24 00:41:18;;;;;;;2.03;1.48;;;13.00;91.60;;;;;;5082077;28;20540;-67
2023/03/24 00:43:47;;;;;;;2.35;1.50;;;12.90;91.50;;;;;;5090570;28;20466;-67
2023/03/24 00:46:26;;;;;;;3.38;1.60;;;13.00;91.50;;;;;;5090327;28;20024;-67
2023/03/24 00:49:02;;;;;;;2.58;1.65;;;13.00;91.40;;;;;;5085634;28;20020;-66
2023/03/24 00:51:34;;;;;;;3.65;1.90;;;13.00;91.50;;;;;;5093784;28;20077;-67
2023/03/24 00:54:00;;;;;;;2.40;1.67;;;13.00;91.70;;;;;;5093555;28;20024;-67
2023/03/24 00:56:28;;;;;;;3.00;1.73;;;13.00;91.70;;;;;;5093414;28;20024;-66
2023/03/24 00:58:56;;;;;;;3.58;1.67;;;13.00;91.80;;;;;;5093589;28;20020;-67
2023/03/24 01:01:23;;;;;;;2.33;1.83;;;13.00;91.80;;;;;;5093210;28;20017;-66
2023/03/24 01:03:49;;;;;;;4.47;1.88;;;13.00;92.00;;;;;;5093393;28;20500;-67
2023/03/24 01:06:17;;;;;;;2.80;1.55;;;13.00;92.10;;;;;;5092871;28;20697;-67
2023/03/24 01:08:43;;;;;;;4.13;1.80;;;13.00;92.00;;;;;;5091877;28;20019;-67
2023/03/24 01:11:11;;;;;;;3.05;1.40;;;13.00;91.90;;;;;;5091779;28;20024;-68
2023/03/24 01:13:38;;;;;;;3.00;1.80;;;13.10;91.90;;;;;;5078835;28;20055;-67
2023/03/24 01:16:05;;;;;;;4.55;1.80;;;13.00;91.80;;;;;;5083551;28;20140;-68
2023/03/24 01:18:31;;;;;;;2.83;1.70;;;13.10;92.00;;;;;;5085184;28;20052;-67
2023/03/24 01:20:57;;;;;;;3.42;1.55;;;13.00;92.00;;;;;;5090799;28;20054;-67
2023/03/24 01:23:24;;;;;;;3.75;1.60;;;13.10;91.90;;;;;;5076910;28;20024;-66
2023/03/24 01:25:50;;;;;;;3.55;1.88;;;13.10;91.90;;;;;;5086757;28;20397;-67
2023/03/24 01:28:26;;;;;;;3.42;1.60;;;13.10;91.90;;;;;;5084257;28;20528;-67
2023/03/24 01:30:52;;;;;;;1.70;1.38;;;13.10;91.90;;;;;;5088384;28;20020;-68
2023/03/24 01:33:18;;;;;;;3.05;1.50;;;13.10;91.90;;;;;;5087736;28;20069;-68
2023/03/24 01:35:44;;;;;;;2.88;1.80;;;13.10;91.90;;;;;;5092477;28;20020;-67
2023/03/24 01:38:12;;;;;;;3.17;1.50;;;13.20;92.00;;;;;;5081734;28;20548;-67
2023/03/24 01:40:40;;;;;;;3.65;1.63;;;13.20;92.20;;;;;;5081247;28;20422;-68
2023/03/24 01:43:26;;;;;;;2.55;1.50;;;13.20;91.90;;;;;;5085342;28;20047;-67
2023/03/24 01:46:20;;;;;;;3.97;1.90;;;13.20;91.90;;;;;;5081688;28;20359;-66
2023/03/24 01:49:03;;;;;;;3.05;1.52;;;13.20;92.00;;;;;;5082024;28;20097;-67
2023/03/24 01:51:37;;;;;;;3.17;1.70;;;13.20;92.00;;;;;;5077650;28;20031;-66
2023/03/24 01:54:24;;;;;;;2.15;1.50;;;13.20;91.90;;;;;;5084157;28;20028;-67
2023/03/24 01:56:58;;;;;;;2.22;1.42;;;13.30;91.90;;;;;;5085604;28;20049;-67
2023/03/24 01:59:28;;;;;;;2.55;1.40;;;13.30;91.90;;;;;;5084353;28;20037;-67
2023/03/24 02:02:01;;;;;;;2.83;1.60;;;13.30;91.90;;;;;;5075061;28;20433;-67
2023/03/24 02:04:29;;;;;;;1.92;1.40;;;13.30;91.80;;;;;;5083493;28;20077;-68
2023/03/24 02:06:57;;;;;;;2.97;1.40;;;13.30;91.90;;;;;;5084095;28;20020;-69
2023/03/24 02:09:23;;;;;;;2.53;1.52;;;13.30;91.90;;;;;;5083398;28;20021;-67
2023/03/24 02:11:48;;;;;;;2.10;1.60;;;13.30;91.90;;;;;;5075095;28;20413;-66
2023/03/24 02:14:15;;;;;;;2.17;1.65;;;13.30;92.00;;;;;;5090920;28;20086;-67
2023/03/24 02:16:53;;;;;;;2.15;1.58;;;13.30;92.00;;;;;;5080716;28;20021;-70
2023/03/24 02:19:36;;;;;;;4.50;1.67;;;13.30;92.50;;;;;;5076374;28;20048;-67
2023/03/24 02:22:17;;;;;;;2.38;1.52;;;13.30;92.20;;;;;;5071985;28;20028;-67
2023/03/24 02:25:04;;;;;;;3.00;1.75;;;13.30;92.40;;;;;;5088627;28;20036;-66
2023/03/24 02:28:01;;;;;;;3.42;1.48;;;13.30;92.40;;;;;;5087038;28;20056;-66
2023/03/24 02:30:43;;;;;;;2.05;1.52;;;13.30;92.40;;;;;;5085736;28;20016;-67
2023/03/24 02:33:15;;;;;;;3.42;1.80;;;13.30;92.40;;;;;;5081155;28;20028;-67
2023/03/24 02:35:56;;;;;;;2.38;1.40;;;13.30;92.40;;;;;;5089297;28;20032;-67
2023/03/24 02:38:49;;;;;;;2.70;1.70;;;13.30;92.40;;;;;;5089182;28;20482;-68
2023/03/24 02:41:31;;;;;;;2.83;1.70;;;13.30;92.30;;;;;;5088261;28;20044;-67
2023/03/24 02:44:19;;;;;;;2.15;1.40;;;13.30;92.20;;;;;;5088703;28;20025;-66
2023/03/24 02:46:57;;;;;;;2.50;1.58;;;13.40;92.30;;;;;;5086082;28;20657;-67
2023/03/24 02:49:37;;;;;;;2.13;1.60;;;13.30;92.30;;;;;;5069915;28;20024;-67
2023/03/24 02:52:06;;;;;;;2.70;1.55;;;13.30;92.50;;;;;;5085599;28;20044;-66
2023/03/24 02:55:08;;;;;;;3.53;1.35;;;13.30;92.50;;;;;;5069800;28;20028;-66
2023/03/24 02:57:56;;;;;;;3.60;1.90;;;13.30;92.60;;;;;;5075563;28;20429;-66
2023/03/24 03:00:33;;;;;;;2.30;1.60;;;13.30;92.50;;;;;;5076049;28;20431;-67
2023/03/24 03:03:07;;;;;;;2.28;1.65;;;13.30;92.50;;;;;;5087445;28;20024;-66
2023/03/24 03:05:38;;;;;;;1.67;1.20;;;13.30;92.50;;;;;;5082918;28;20036;-65
2023/03/24 03:08:08;;;;;;;3.13;1.70;;;13.40;92.40;;;;;;5089541;28;20020;-65
2023/03/24 03:10:37;;;;;;;3.80;2.00;;;13.30;92.40;;;;;;5088894;28;20096;-67
2023/03/24 03:13:14;;;;;;;2.67;1.65;;;13.40;92.70;;;;;;5086877;28;20028;-66
2023/03/24 03:15:45;;;;;;;1.63;1.20;;;13.40;92.70;;;;;;5088985;28;20028;-65
2023/03/24 03:18:21;;;;;;;2.57;1.40;;;13.30;92.50;;;;;;5079685;28;20021;-66
2023/03/24 03:20:52;;;;;;;1.10;1.00;;;13.30;92.40;;;;;;5089690;28;20051;-66
2023/03/24 03:23:55;;;;;;;1.73;1.10;;;13.30;92.40;;;;;;5086679;28;20021;-65
2023/03/24 03:26:25;;;;;;;1.67;0.98;;;13.30;92.60;;;;;;5081516;28;20024;-68
2023/03/24 03:28:56;;;;;;;1.10;0.80;;;13.20;92.30;;;;;;5088611;28;20069;-66
2023/03/24 03:31:28;;;;;;;0.80;0.77;;;13.10;92.30;;;;;;5082244;28;20032;-65
2023/03/24 03:34:29;;;;;;;0.88;0.70;;;13.10;92.20;;;;;;5089202;28;20055;-65
2023/03/24 03:37:04;;;;;;;3.55;0.70;;;13.00;92.10;;;;;;5083076;28;20059;-68
2023/03/24 03:39:35;;;;;;;1.85;0.70;;;12.90;91.90;;;;;;5079962;28;20022;-67
2023/03/24 03:42:03;;;;;;;0.85;0.73;;;12.80;92.00;;;;;;5082982;28;20044;-67
2023/03/24 03:44:30;;;;;;;0.70;0.60;;;12.80;91.90;;;;;;5086399;28;20031;-68
2023/03/24 03:46:56;;;;;;;1.48;0.70;;;12.70;91.90;;;;;;5076482;28;20025;-67
2023/03/24 03:49:21;;;;;;;0.93;0.60;;;12.60;91.80;;;;;;5089920;28;20027;-66
2023/03/24 03:51:48;;;;;;;1.48;0.70;;;12.60;91.70;;;;;;5081696;28;20415;-64
2023/03/24 03:54:16;;;;;;;1.52;0.70;;;12.50;91.60;;;;;;5086660;28;20417;-66
2023/03/24 03:56:42;;;;;;;1.23;0.73;;;12.50;91.60;;;;;;5085004;28;20016;-67
2023/03/24 03:59:22;;;;;;;0.80;0.50;;;12.40;91.60;;;;;;5089328;28;20028;-68
2023/03/24 04:01:48;;;;;;;0.88;0.50;;;12.40;91.50;;;;;;5083218;28;20017;-65
2023/03/24 04:04:13;;;;;;;2.42;0.75;;;12.30;91.50;;;;;;5087476;28;20081;-68
2023/03/24 04:07:07;;;;;;;1.67;0.77;;;12.30;91.40;;;;;;5089413;28;20032;-69
2023/03/24 04:09:54;;;;;;;2.47;0.95;;;12.20;91.30;;;;;;5083065;28;20080;-67
2023/03/24 04:12:56;;;;;;;2.47;1.00;;;12.10;91.10;;;;;;5081557;28;20024;-68
2023/03/24 04:15:24;;;;;;;1.45;0.70;;;12.10;91.10;;;;;;5082963;28;20039;-66
2023/03/24 04:17:49;;;;;;;1.02;0.80;;;12.00;91.00;;;;;;5080696;28;20020;-66
2023/03/24 04:20:24;;;;;;;2.15;0.98;;;12.00;91.00;;;;;;5070085;28;20017;-70
2023/03/24 04:22:55;;;;;;;1.77;0.82;;;12.00;91.00;;;;;;5078755;28;20111;-65
2023/03/24 04:25:48;;;;;;;1.10;0.80;;;12.00;91.00;;;;;;5090181;28;20031;-70
2023/03/24 04:28:14;;;;;;;1.00;0.70;;;12.00;90.90;;;;;;5087400;28;20447;-65
2023/03/24 04:31:02;;;;;;;1.35;0.90;;;12.00;90.80;;;;;;5082162;28;20092;-69
2023/03/24 04:33:41;;;;;;;3.03;0.85;;;12.00;90.80;;;;;;5081197;28;20020;-67
2023/03/24 04:36:42;;;;;;;4.20;1.10;;;11.90;90.70;;;;;;5082151;28;20020;-66
2023/03/24 04:39:13;;;;;;;1.47;0.63;;;11.90;90.70;;;;;;5085630;28;20024;-66
2023/03/24 04:41:41;;;;;;;0.82;0.68;;;11.90;90.60;;;;;;5086742;28;20032;-65
2023/03/24 04:44:09;;;;;;;3.72;1.00;;;11.90;90.60;;;;;;5075661;28;20029;-66
2023/03/24 04:46:35;;;;;;;3.83;1.15;;;11.90;90.60;;;;;;5083562;28;20382;-65
2023/03/24 04:49:01;;;;;;;2.38;1.10;;;11.80;90.50;;;;;;5076994;28;20115;-67
2023/03/24 04:51:27;;;;;;;5.82;1.33;;;11.70;90.50;;;;;;5078541;28;20052;-66
2023/03/24 04:53:53;;;;;;;3.08;1.10;;;11.70;90.60;;;;;;5081319;28;20108;-68
2023/03/24 04:56:29;;;;;;;5.22;1.13;;;11.60;90.60;;;;;;5084078;28;20163;-69
2023/03/24 04:58:55;;;;;;;3.20;1.10;;;11.60;90.60;;;;;;5083957;28;20020;-69
2023/03/24 05:01:21;;;;;;;2.42;1.00;;;11.60;90.60;;;;;;5083098;28;20020;-70
2023/03/24 05:03:48;;;;;;;3.15;1.10;;;11.60;90.60;;;;;;5083163;28;20073;-69
2023/03/24 05:06:14;;;;;;;5.32;1.48;;;11.60;90.60;;;;;;5090411;28;20016;-68
2023/03/24 05:08:40;;;;;;;4.47;1.25;;;11.60;90.60;;;;;;5089835;28;20031;-66
2023/03/24 05:11:06;;;;;;;4.28;1.35;;;11.50;90.50;;;;;;5087509;28;20039;-65
2023/03/24 05:13:31;;;;;;;3.60;1.08;;;11.50;90.50;;;;;;5081716;28;20158;-66
2023/03/24 05:15:57;;;;;;;2.38;0.82;;;11.50;90.40;;;;;;5077071;28;20026;-66
2023/03/24 05:18:23;;;;;;;2.90;1.35;;;11.40;90.40;;;;;;5085427;28;20107;-69
2023/03/24 05:20:49;;;;;;;6.10;1.38;;;11.40;90.50;;;;;;5091476;28;20056;-67
2023/03/24 05:23:15;;;;;;;1.77;1.00;;;11.40;90.40;;;;;;5078169;28;20043;-67
2023/03/24 05:25:41;;;;;;;4.93;1.20;;;11.40;90.40;;;;;;5087950;28;20024;-68
2023/03/24 05:28:06;;;;;;;4.10;1.40;;;11.40;90.40;;;;;;5084864;28;20029;-67
2023/03/24 05:30:32;;;;;;;4.93;1.15;;;11.40;90.30;;;;;;5092466;28;20028;-66
2023/03/24 05:32:58;;;;;;;2.83;1.00;;;11.40;90.30;;;;;;5076291;28;20034;-66
2023/03/24 05:35:23;;;;;;;2.92;1.02;;;11.30;90.30;;;;;;5075326;28;20024;-67
2023/03/24 05:37:50;;;;;;;3.30;1.00;;;11.30;90.20;;;;;;5087053;28;20397;-66
2023/03/24 05:40:16;;;;;;;5.60;1.35;;;11.30;90.30;;;;;;5081398;28;20485;-68
2023/03/24 05:42:41;;;;;;;5.53;1.40;;;11.30;90.20;;;;;;5072733;28;20364;-67
2023/03/24 05:45:09;;;;;;;1.33;1.02;;;11.30;90.20;;;;;;5075067;28;20031;-65
2023/03/24 05:47:34;;;;;;;2.83;0.98;;;11.20;90.20;;;;;;5079245;28;20530;-66
2023/03/24 05:50:00;;;;;;;2.33;1.20;;;11.20;90.10;;;;;;5088543;28;20107;-66
2023/03/24 05:52:25;;;;;;;8.32;1.30;;;11.20;90.20;;;;;;5078203;28;20028;-66
2023/03/24 05:54:51;;;;;;;5.50;1.75;;;11.30;90.10;;;;;;5088279;28;20028;-65
2023/03/24 05:57:18;;;;;;;4.63;1.40;;;11.30;90.10;;;;;;5079657;28;20067;-66
2023/03/24 05:59:44;;;;;;;4.25;1.48;;;11.30;90.00;;;;;;5091133;28;20036;-67
2023/03/24 06:02:10;;;;;;;2.92;1.25;;;11.30;90.00;;;;;;5090658;28;20019;-68
2023/03/24 06:04:36;;;;;;;1.67;1.00;;;11.30;89.90;;;;;;5088572;28;20063;-66
2023/03/24 06:07:02;;;;;;;1.90;1.08;;;11.40;89.90;;;;;;5086254;28;20025;-67
2023/03/24 06:09:34;;;;;;;4.20;1.20;;;11.40;89.70;;;;;;5087158;28;20020;-69
2023/03/24 06:12:03;;;;;;;2.80;1.30;;;11.40;89.70;;;;;;5084001;28;20035;-66
2023/03/24 06:14:29;;;;;;;4.65;1.20;;;11.40;89.60;;;;;;5088939;28;20024;-66
2023/03/24 06:16:58;;;;;;;4.55;1.40;;;11.40;89.50;;;;;;5091878;28;20502;-66
2023/03/24 06:19:24;;;;;;;3.42;1.30;;;11.50;89.50;;;;;;5095168;28;20068;-66
2023/03/24 06:21:50;;;;;;;3.55;1.00;;;11.50;89.40;;;;;;5112379;28;20088;-66
2023/03/24 06:24:16;;;;;;;3.75;1.30;;;11.50;89.20;;;;;;5083938;28;20032;-67
2023/03/24 06:26:43;;;;;;;4.32;1.33;;;11.50;89.20;;;;;;5085694;28;20085;-66
2023/03/24 06:29:10;;;;;;;5.38;1.20;;;11.50;89.20;;;;;;5095184;28;20028;-68
2023/03/24 06:31:36;;;;;;;3.72;2.20;;;11.60;89.20;;;;;;5093404;28;20024;-67
2023/03/24 06:34:05;;;;;;;5.70;1.55;;;11.60;89.00;;;;;;5096440;28;20138;-67
2023/03/24 06:36:33;;;;;;;2.45;1.40;;;11.60;89.00;;;;;;5088064;28;20031;-68
2023/03/24 06:39:04;;;;;;;4.13;1.50;;;11.50;89.00;;;;;;5084959;28;20048;-66
2023/03/24 06:41:31;;;;;;;3.47;1.25;;;11.60;89.00;;;;;;5086236;28;20371;-65
2023/03/24 06:43:56;;;;;;;4.00;1.33;;;11.60;88.90;;;;;;5081830;28;20070;-65
2023/03/24 06:46:22;;;;;;;2.95;1.33;;;11.60;88.70;;;;;;5095344;28;20028;-67
2023/03/24 06:48:48;;;;;;;3.35;1.58;;;11.60;88.70;;;;;;5087235;28;20031;-67
2023/03/24 06:51:14;;;;;;;3.00;1.40;;;11.60;88.60;;;;;;5078725;28;20036;-68
2023/03/24 06:53:40;;;;;;;4.53;1.30;;;11.60;88.50;;;;;;5090271;28;20020;-69
2023/03/24 06:56:06;;;;;;;2.15;1.17;;;11.60;88.50;;;;;;5087008;28;20028;-66
2023/03/24 06:58:32;;;;;;;5.32;1.80;;;11.70;88.50;;;;;;5082394;28;20025;-67
2023/03/24 07:01:00;;;;;;;3.83;1.38;;;11.70;88.40;;;;;;5090205;28;20021;-68
2023/03/24 07:03:25;;;;;;;4.78;1.13;;;11.70;88.20;;;;;;5086625;28;20023;-66
2023/03/24 07:05:51;;;;;;;2.63;1.00;;;11.80;88.10;;;;;;5082653;28;20032;-66
2023/03/24 07:08:18;;;;;;;4.25;1.10;;;11.80;88.10;;;;;;5082888;28;20032;-67
2023/03/24 07:10:44;;;;;;;4.55;1.60;;;11.80;88.10;;;;;;5075394;28;20036;-67
2023/03/24 07:13:09;;;;;;;4.82;1.27;;;11.80;87.90;;;;;;5086930;28;20020;-66
2023/03/24 07:15:35;;;;;;;3.28;1.52;;;11.80;87.80;;;;;;5073770;28;20478;-68
2023/03/24 07:18:00;;;;;;;3.83;1.30;;;11.80;87.70;;;;;;5079520;28;20024;-68
2023/03/24 07:20:26;;;;;;;2.85;1.05;;;11.80;87.60;;;;;;5087024;28;20024;-66
2023/03/24 07:22:55;;;;;;;3.42;1.48;;;11.90;87.70;;;;;;5084635;28;20431;-65
2023/03/24 07:25:21;;;;;;;6.10;1.83;;;11.90;87.50;;;;;;5089012;28;20648;-67
2023/03/24 07:27:47;;;;;;;3.53;1.27;;;11.90;87.40;;;;;;5085541;28;20051;-66
2023/03/24 07:30:13;;;;;;;4.10;1.30;;;11.90;87.30;;;;;;5080357;28;21631;-68
2023/03/24 07:32:39;;;;;;;4.22;1.40;;;12.00;87.30;;;;;;5082970;28;20035;-66
2023/03/24 07:35:12;;;;;;;2.47;1.42;;;12.00;87.00;;;;;;5088794;28;20486;-66
2023/03/24 07:37:38;;;;;;;5.70;1.70;;;12.10;87.00;;;;;;5083433;28;20095;-68
2023/03/24 07:40:10;;;;;;;6.00;1.73;;;12.20;86.70;;;;;;5070113;28;20376;-66
2023/03/24 07:42:37;;;;;;;3.15;1.70;;;12.20;86.40;;;;;;5070062;28;20032;-68
2023/03/24 07:45:04;;;;;;;5.40;2.13;;;12.20;86.20;;;;;;5081870;28;20020;-66
2023/03/24 07:47:30;;;;;;;5.35;1.48;;;12.30;86.70;;;;;;5089653;28;20024;-67
2023/03/24 07:49:56;;;;;;;4.28;1.40;;;12.30;85.90;;;;;;5098898;28;20024;-67
2023/03/24 07:52:22;;;;;;;6.30;1.40;;;12.30;85.80;;;;;;5089810;28;20028;-67
2023/03/24 07:54:47;;;;;;;4.70;1.40;;;12.40;85.70;;;;;;5071870;28;20371;-68
2023/03/24 07:57:13;;;;;;;3.10;1.60;;;12.40;85.60;;;;;;5072505;28;20017;-68
2023/03/24 07:59:38;;;;;;;3.45;1.23;;;12.40;85.60;;;;;;5084615;28;20016;-67
2023/03/24 08:02:04;;;;;;;3.55;1.20;;;12.40;85.60;;;;;;5085966;28;20024;-67
2023/03/24 08:04:31;;;;;;;3.95;1.38;;;12.50;85.80;;;;;;5084460;28;20052;-67
2023/03/24 08:06:57;;;;;;;2.85;1.63;;;12.60;85.60;;;;;;5084807;28;20062;-67
2023/03/24 08:09:23;;;;;;;2.70;1.30;;;12.80;85.30;;;;;;5083665;28;20072;-67
2023/03/24 08:11:49;;;;;;;4.10;1.50;;;13.00;84.90;;;;;;5077947;28;20038;-66
2023/03/24 08:14:15;;;;;;;5.03;1.52;;;13.10;84.50;;;;;;5083415;28;20025;-67
2023/03/24 08:16:41;;;;;;;5.35;1.50;;;13.10;84.10;;;;;;5079229;28;20020;-68
2023/03/24 08:19:06;;;;;;;2.00;1.20;;;13.20;83.80;;;;;;5084904;28;20028;-68
2023/03/24 08:21:32;;;;;;;4.55;1.52;;;13.20;83.40;;;;;;5084595;28;20024;-68
2023/03/24 08:23:57;;;;;;;5.45;1.60;;;13.20;83.40;;;;;;5090787;28;20020;-68
2023/03/24 08:26:25;;;;;;;2.53;1.38;;;13.20;83.40;;;;;;5076619;28;20094;-67
2023/03/24 08:28:51;;;;;;;2.47;1.30;;;13.20;83.40;;;;;;5077231;28;20123;-67
2023/03/24 08:31:17;;;;;;;3.38;1.40;;;13.20;83.00;;;;;;5083609;28;20020;-67
2023/03/24 08:33:43;;;;;;;5.80;1.73;;;13.20;82.80;;;;;;5087402;28;20446;-68
2023/03/24 08:36:08;;;;;;;5.28;1.58;;;13.20;82.50;;;;;;5089620;28;20111;-66
2023/03/24 08:38:37;;;;;;;2.53;1.40;;;13.40;82.50;;;;;;5090975;28;20019;-68
2023/03/24 08:41:05;;;;;;;4.10;1.48;;;13.50;82.00;;;;;;5089590;28;20509;-69
2023/03/24 08:43:32;;;;;;;4.30;1.50;;;13.50;81.40;;;;;;5084359;28;20122;-68
2023/03/24 08:46:00;;;;;;;2.15;1.33;;;13.40;81.30;;;;;;5080785;28;20048;-66
2023/03/24 08:48:27;;;;;;;3.00;1.63;;;13.40;81.30;;;;;;5088185;28;20032;-69
2023/03/24 08:50:53;;;;;;;5.40;1.40;;;13.40;81.70;;;;;;5091095;28;20012;-66
2023/03/24 08:53:19;;;;;;;2.83;1.35;;;13.50;81.60;;;;;;5092761;28;20028;-69
2023/03/24 08:55:45;;;;;;;7.22;1.30;;;13.50;81.40;;;;;;5090808;28;20111;-66
2023/03/24 08:58:16;;;;;;;5.57;1.88;;;13.50;81.10;;;;;;5091157;28;20111;-66
2023/03/24 09:00:43;;;;;;;3.40;1.57;;;13.50;80.70;;;;;;5087064;28;20019;-69
2023/03/24 09:03:13;;;;;;;4.80;1.63;;;13.60;80.70;;;;;;5089281;28;20282;-67
2023/03/24 09:05:39;;;;;;;8.38;2.05;;;13.60;80.50;;;;;;5092867;28;20028;-67
2023/03/24 09:08:06;;;;;;;5.63;1.40;;;13.60;80.10;;;;;;5093038;28;20115;-66
2023/03/24 09:10:32;;;;;;;5.57;1.20;;;13.60;80.40;;;;;;5092215;28;20031;-71
2023/03/24 09:12:58;;;;;;;3.88;1.17;;;13.80;80.20;;;;;;5093947;28;20103;-66
2023/03/24 09:15:23;;;;;;;4.97;1.75;;;13.80;80.10;;;;;;5082336;28;20097;-66
2023/03/24 09:17:49;;;;;;;5.05;1.52;;;13.90;79.70;;;;;;5083965;28;20040;-66
2023/03/24 09:20:15;;;;;;;4.28;1.63;;;13.90;79.50;;;;;;5086573;28;20498;-68
2023/03/24 09:22:43;;;;;;;5.32;1.58;;;13.90;79.40;;;;;;5088610;28;20754;-67
2023/03/24 09:25:11;;;;;;;7.25;1.65;;;13.90;79.20;;;;;;5089913;28;20096;-68
2023/03/24 09:27:38;;;;;;;3.60;1.45;;;13.90;78.50;;;;;;5091314;28;20528;-68
2023/03/24 09:30:05;;;;;;;4.72;1.35;;;13.90;78.90;;;;;;5094320;28;20035;-67
2023/03/24 09:32:32;;;;;;;5.15;1.40;;;13.90;78.80;;;;;;5092590;28;20026;-68
2023/03/24 09:34:58;;;;;;;2.67;1.27;;;13.90;78.80;;;;;;5089775;28;20409;-67
2023/03/24 09:37:23;;;;;;;3.25;1.33;;;13.90;78.70;;;;;;5090233;28;20020;-68
2023/03/24 09:39:49;;;;;;;5.03;1.50;;;13.90;78.60;;;;;;5091166;28;20024;-67
2023/03/24 09:42:22;;;;;;;3.83;1.50;;;13.80;78.70;;;;;;5089655;28;20483;-67
2023/03/24 09:44:54;;;;;;;3.67;0.93;;;13.70;78.30;;;;;;5094508;28;20474;-68
2023/03/24 09:47:28;;;;;;;4.57;1.08;;;13.70;78.50;;;;;;5085022;28;20033;-67
2023/03/24 09:49:59;;;;;;;2.63;1.15;;;13.70;78.50;;;;;;5090585;28;20509;-68
2023/03/24 09:52:37;;;;;;;3.53;1.13;;;13.70;78.40;;;;;;5091344;28;20028;-68
2023/03/24 09:55:03;;;;;;;1.45;1.00;;;13.80;78.60;;;;;;5091691;28;20028;-67
2023/03/24 09:57:35;;;;;;;2.63;0.95;;;13.80;78.50;;;;;;5091663;28;20028;-66
2023/03/24 10:00:07;;;;;;;1.52;0.75;;;13.90;78.40;;;;;;5090762;28;20024;-67
2023/03/24 10:02:33;;;;;;;5.10;1.00;;;14.00;78.70;;;;;;5085423;28;20016;-66
2023/03/24 10:04:59;;;;;;;2.58;1.15;;;14.10;78.10;;;;;;5090415;28;20043;-69
2023/03/24 10:07:34;;;;;;;2.08;1.10;;;14.10;77.80;;;;;;5089820;28;20047;-69
2023/03/24 10:10:00;;;;;;;4.10;1.20;;;14.10;77.80;;;;;;5085049;28;20039;-68
2023/03/24 10:12:38;;;;;;;3.90;1.35;;;14.10;77.50;;;;;;5091522;28;20028;-68
2023/03/24 10:15:30;;;;;;;3.80;1.50;;;14.20;78.20;;;;;;5086512;28;20032;-68
2023/03/24 10:18:18;;;;;;;2.20;1.10;;;14.40;77.40;;;;;;5081653;28;20720;-68
2023/03/24 10:21:13;;;;;;;5.57;1.67;;;14.50;77.00;;;;;;5077785;28;20012;-69
2023/03/24 10:24:01;;;;;;;2.90;1.40;;;14.70;76.00;;;;;;5088351;28;20059;-67
2023/03/24 10:26:40;;;;;;;4.63;1.40;;;14.60;74.90;;;;;;5081360;28;20393;-68
2023/03/24 10:29:35;;;;;;;4.07;1.27;;;14.70;75.10;;;;;;5083920;28;20020;-67
2023/03/24 10:32:05;;;;;;;6.43;1.55;;;14.70;74.70;;;;;;5088545;28;20048;-69
2023/03/24 10:34:32;;;;;;;4.25;1.50;;;14.60;74.80;;;;;;5088616;28;20024;-69
2023/03/24 10:37:01;;;;;;;1.73;1.00;;;14.80;75.30;;;;;;5085851;28;20383;-69
2023/03/24 10:39:28;;;;;;;2.13;1.17;;;14.90;75.60;;;;;;5087769;28;20131;-68
2023/03/24 10:41:57;;;;;;;2.22;1.20;;;14.90;74.90;;;;;;5092052;28;20115;-66
2023/03/24 10:44:23;;;;;;;4.63;1.38;;;15.00;75.10;;;;;;5080356;28;20066;-70
2023/03/24 10:46:53;;;;;;;5.72;1.42;;;14.90;73.80;;;;;;5078311;28;20102;-69
2023/03/24 10:49:21;;;;;;;5.43;1.40;;;14.90;74.30;;;;;;5083472;28;20084;-70
2023/03/24 10:52:02;;;;;;;5.28;1.60;;;15.00;73.90;;;;;;5090528;28;20061;-69
2023/03/24 10:54:29;;;;;;;6.03;1.65;;;15.00;73.50;;;;;;5087178;28;20020;-67
2023/03/24 10:56:59;;;;;;;3.42;1.20;;;15.10;74.00;;;;;;5085579;28;20069;-66
2023/03/24 10:59:37;;;;;;;4.25;1.52;;;15.10;73.90;;;;;;5089077;28;20107;-67
2023/03/24 11:02:08;;;;;;;3.35;1.10;;;15.00;74.10;;;;;;5088511;28;20039;-67
2023/03/24 11:04:38;;;;;;;4.00;1.30;;;15.00;74.10;;;;;;5098432;28;20091;-67
2023/03/24 11:07:12;;;;;;;3.10;0.90;;;15.00;73.90;;;;;;5104039;28;20035;-66
2023/03/24 11:09:44;;;;;;;4.13;0.90;;;15.00;74.20;;;;;;5089121;28;20043;-67
2023/03/24 11:12:25;;;;;;;2.00;0.90;;;14.90;73.50;;;;;;5088732;28;20032;-67
2023/03/24 11:14:59;;;;;;;3.95;1.02;;;14.80;73.60;;;;;;5089171;28;20119;-70
2023/03/24 11:17:26;;;;;;;4.68;1.10;;;14.70;74.10;;;;;;5084915;28;20103;-67
2023/03/24 11:19:54;;;;;;;2.40;1.30;;;14.60;74.40;;;;;;5084698;28;20028;-67
2023/03/24 11:22:21;;;;;;;5.20;1.67;;;14.60;74.70;;;;;;5083140;28;20687;-67
2023/03/24 11:24:54;;;;;;;4.90;1.52;;;14.50;74.80;;;;;;5084481;28;20027;-68
2023/03/24 11:27:20;;;;;;;2.85;1.50;;;14.40;75.00;;;;;;5086646;28;20032;-67
2023/03/24 11:29:53;;;;;;;2.13;1.27;;;14.30;75.10;;;;;;5083315;28;20016;-67
2023/03/24 11:32:23;;;;;;;4.07;1.13;;;14.20;75.50;;;;;;5081551;28;20103;-69
2023/03/24 11:35:06;;;;;;;2.40;1.00;;;14.20;75.90;;;;;;5084853;28;20107;-68
2023/03/24 11:37:36;;;;;;;5.28;1.25;;;14.20;76.40;;;;;;5085517;28;20054;-66
2023/03/24 11:40:16;;;;;;;2.00;0.80;;;14.10;76.30;;;;;;5089633;28;20024;-66
2023/03/24 11:42:46;;;;;;;2.85;0.93;;;14.10;76.80;;;;;;5090562;28;20018;-67
2023/03/24 11:45:36;;;;;;;2.97;1.20;;;14.20;77.10;;;;;;5091023;28;20035;-67
2023/03/24 11:48:10;;;;;;;2.88;1.10;;;14.40;77.20;;;;;;5088177;28;20046;-69
2023/03/24 11:50:37;;;;;;;2.15;0.70;;;14.60;77.10;;;;;;5081338;28;20031;-71
2023/03/24 11:53:09;;;;;;;3.67;1.27;;;14.60;76.30;;;;;;5086581;28;20141;-68
2023/03/24 11:56:10;;;;;;;2.67;1.58;;;14.80;76.00;;;;;;5086802;28;20020;-67
2023/03/24 11:58:47;;;;;;;3.08;1.35;;;15.00;75.70;;;;;;5080644;28;20028;-68
2023/03/24 12:01:20;;;;;;;1.70;1.00;;;15.10;75.50;;;;;;5080771;28;20020;-67
2023/03/24 12:03:49;;;;;;;3.00;0.90;;;15.20;74.80;;;;;;5083634;28;20023;-68
2023/03/24 12:06:37;;;;;;;1.90;0.82;;;15.10;74.70;;;;;;5089114;28;20488;-67
2023/03/24 12:09:15;;;;;;;1.73;0.90;;;14.90;74.40;;;;;;5078625;28;20036;-66
2023/03/24 12:12:01;;;;;;;1.55;0.70;;;14.80;75.40;;;;;;5085531;28;20020;-69
2023/03/24 12:14:54;;;;;;;1.17;0.70;;;14.70;76.00;;;;;;5083647;28;20063;-67
2023/03/24 12:17:24;;;;;;;1.63;0.73;;;14.50;76.60;;;;;;5088746;28;20070;-68
2023/03/24 12:20:09;;;;;;;3.40;0.80;;;14.30;77.30;;;;;;5082675;28;20058;-67
2023/03/24 12:22:45;;;;;;;2.72;0.88;;;14.10;77.90;;;;;;5086685;28;20763;-67
2023/03/24 12:25:16;;;;;;;1.58;0.63;;;13.70;78.70;;;;;;5091146;28;20032;-67
2023/03/24 12:28:07;;;;;;;1.65;0.80;;;13.50;79.40;;;;;;5088497;28;20483;-68
2023/03/24 12:31:27;;;;;;;1.58;0.85;;;13.30;80.10;;;;;;5085428;28;20032;-66
2023/03/24 12:34:04;;;;;;;0.65;0.60;;;13.20;80.60;;;;;;5063113;28;20037;-67
2023/03/24 12:36:49;;;;;;;1.63;0.60;;;13.20;80.70;;;;;;5062011;28;20105;-67
2023/03/24 12:39:34;;;;;;;1.15;0.80;;;13.10;80.70;;;;;;5076785;28;20546;-67
2023/03/24 12:42:06;;;;;;;1.13;0.55;;;13.00;81.00;;;;;;5077632;28;20039;-67
2023/03/24 12:44:56;;;;;;;0.60;0.60;;;12.90;81.10;;;;;;5082821;28;20550;-68
2023/03/24 12:47:37;;;;;;;1.75;0.63;;;13.00;81.20;;;;;;5087168;28;20081;-69
2023/03/24 12:50:35;;;;;;;0.82;0.50;;;13.00;81.20;;;;;;5084076;28;20159;-68
2023/03/24 12:53:22;;;;;;;2.50;0.77;;;13.00;81.20;;;;;;5082598;28;20029;-68
2023/03/24 12:55:56;;;;;;;1.63;0.65;;;13.10;81.10;;;;;;5083298;28;20028;-68
2023/03/24 12:58:41;;;;;;;2.15;0.77;;;13.10;81.10;;;;;;5086241;28;20025;-67
2023/03/24 13:01:31;;;;;;;2.55;0.80;;;13.10;81.20;;;;;;5080443;28;20028;-68
2023/03/24 13:04:25;;;;;;;2.75;1.02;;;13.40;80.90;;;;;;5081767;28;20616;-69
2023/03/24 13:06:55;;;;;;;2.10;0.90;;;13.50;80.60;;;;;;5082961;28;20040;-68
2023/03/24 13:09:58;;;;;;;1.25;0.70;;;13.60;80.30;;;;;;5092184;28;20040;-67
2023/03/24 13:12:40;;;;;;;1.83;0.80;;;13.70;80.10;;;;;;5082850;28;20409;-69